createdAt,value
2022-09-03T00:00:37.617Z,35.30
2022-09-03T00:03:12.447Z,35.20
2022-09-03T00:05:46.854Z,35.40
2022-09-03T00:08:17.947Z,35.20
2022-09-03T00:10:51.206Z,35.00
2022-09-03T00:13:23.234Z,35.70
2022-09-03T00:15:51.696Z,35.60
2022-09-03T00:18:21.884Z,35.00
2022-09-03T00:20:54.049Z,35.00
2022-09-03T00:23:25.037Z,35.00
2022-09-03T00:25:58.672Z,35.10
2022-09-03T00:28:28.621Z,35.30
2022-09-03T00:31:27.020Z,35.00
2022-09-03T00:33:58.331Z,35.10
2022-09-03T00:36:33.882Z,35.30
2022-09-03T00:39:01.914Z,35.30
2022-09-03T00:41:35.151Z,35.30
2022-09-03T00:44:19.223Z,35.30
2022-09-03T00:46:53.352Z,35.30
2022-09-03T00:49:27.169Z,35.20
2022-09-03T00:52:03.400Z,35.20
2022-09-03T00:54:39.760Z,35.40
2022-09-03T00:57:23.700Z,35.70
2022-09-03T00:59:57.083Z,35.60
2022-09-03T01:02:29.808Z,35.30
2022-09-03T01:05:05.705Z,36.20
2022-09-03T01:07:40.627Z,35.60
2022-09-03T01:10:18.758Z,35.40
2022-09-03T01:12:52.968Z,35.50
2022-09-03T01:15:27.316Z,35.70
2022-09-03T01:18:04.391Z,35.70
2022-09-03T01:20:50.701Z,35.40
2022-09-03T01:23:36.689Z,35.60
2022-09-03T01:26:21.197Z,35.40
2022-09-03T01:28:58.640Z,35.30
2022-09-03T01:31:32.207Z,35.50
2022-09-03T01:34:09.640Z,35.30
2022-09-03T01:36:46.005Z,35.30
2022-09-03T01:39:21.655Z,35.30
2022-09-03T01:41:59.259Z,35.10
2022-09-03T01:44:35.959Z,35.20
2022-09-03T01:47:09.646Z,35.20
2022-09-03T01:49:45.069Z,35.20
2022-09-03T01:52:15.972Z,35.30
2022-09-03T01:54:51.920Z,35.30
2022-09-03T01:57:43.198Z,35.40
2022-09-03T02:00:13.012Z,35.40
2022-09-03T02:02:41.080Z,35.70
2022-09-03T02:05:10.730Z,35.70
2022-09-03T02:07:39.653Z,35.60
2022-09-03T02:10:09.066Z,35.60
2022-09-03T02:12:39.206Z,35.50
2022-09-03T02:15:09.801Z,35.50
2022-09-03T02:17:38.540Z,35.40
2022-09-03T02:20:09.647Z,35.50
2022-09-03T02:22:36.367Z,35.70
2022-09-03T02:25:03.271Z,35.70
2022-09-03T02:27:30.362Z,35.50
2022-09-03T02:29:57.435Z,35.80
2022-09-03T02:32:24.340Z,35.80
2022-09-03T02:34:52.369Z,35.80
2022-09-03T02:37:19.638Z,35.60
2022-09-03T02:39:46.578Z,35.70
2022-09-03T02:42:14.325Z,35.80
2022-09-03T02:44:44.744Z,35.70
2022-09-03T02:47:12.157Z,35.80
2022-09-03T02:49:38.862Z,35.70
2022-09-03T02:52:08.815Z,35.70
2022-09-03T02:54:36.215Z,36.00
2022-09-03T02:57:03.512Z,35.80
2022-09-03T02:59:30.194Z,36.00
2022-09-03T03:02:01.164Z,36.20
2022-09-03T03:04:28.243Z,36.30
2022-09-03T03:06:55.016Z,36.10
2022-09-03T03:09:23.029Z,35.90
2022-09-03T03:11:49.714Z,35.90
2022-09-03T03:14:17.005Z,36.00
2022-09-03T03:16:43.961Z,35.90
2022-09-03T03:19:10.857Z,36.10
2022-09-03T03:21:37.624Z,36.30
2022-09-03T03:24:05.170Z,36.00
2022-09-03T03:26:35.128Z,36.20
2022-09-03T03:29:02.934Z,36.20
2022-09-03T03:31:29.631Z,36.00
2022-09-03T03:33:58.182Z,36.20
2022-09-03T03:36:26.467Z,36.20
2022-09-03T03:38:54.821Z,36.10
2022-09-03T03:41:23.311Z,36.90
2022-09-03T03:43:55.060Z,36.90
2022-09-03T03:46:22.456Z,36.70
2022-09-03T03:48:49.514Z,36.60
2022-09-03T03:51:16.241Z,36.00
2022-09-03T03:53:43.010Z,36.40
2022-09-03T03:56:12.008Z,36.40
2022-09-03T03:58:39.513Z,36.40
2022-09-03T04:01:09.842Z,36.30
2022-09-03T04:03:37.245Z,36.30
2022-09-03T04:06:05.009Z,36.10
2022-09-03T04:08:34.630Z,36.00
2022-09-03T04:11:03.068Z,36.10
2022-09-03T04:13:30.040Z,35.90
2022-09-03T04:16:00.971Z,36.70
2022-09-03T04:18:29.213Z,37.40
2022-09-03T04:21:00.234Z,36.70
2022-09-03T04:23:28.147Z,36.80
2022-09-03T04:25:54.857Z,36.20
2022-09-03T04:28:21.572Z,36.30
2022-09-03T04:30:49.201Z,36.60
2022-09-03T04:33:16.430Z,37.00
2022-09-03T04:35:44.722Z,36.60
2022-09-03T04:38:11.646Z,36.40
2022-09-03T04:40:38.411Z,36.30
2022-09-03T04:43:05.077Z,36.20
2022-09-03T04:45:32.033Z,36.20
2022-09-03T04:47:59.560Z,36.30
2022-09-03T04:50:26.511Z,36.50
2022-09-03T04:52:54.620Z,36.30
2022-09-03T04:55:21.324Z,36.40
2022-09-03T04:57:48.049Z,37.10
2022-09-03T05:00:15.004Z,36.90
2022-09-03T05:02:44.371Z,36.60
2022-09-03T05:05:11.065Z,36.70
2022-09-03T05:07:37.757Z,36.80
2022-09-03T05:10:08.545Z,37.00
2022-09-03T05:12:35.583Z,37.00
2022-09-03T05:15:02.326Z,37.00
2022-09-03T05:17:29.014Z,36.90
2022-09-03T05:19:55.664Z,37.20
2022-09-03T05:22:22.372Z,37.20
2022-09-03T05:24:49.632Z,36.90
2022-09-03T05:27:17.687Z,36.90
2022-09-03T05:29:44.381Z,37.00
2022-09-03T05:32:11.355Z,36.70
2022-09-03T05:34:38.108Z,37.40
2022-09-03T05:37:04.999Z,38.00
2022-09-03T05:39:32.579Z,37.70
2022-09-03T05:41:59.295Z,37.70
2022-09-03T05:44:27.278Z,38.00
2022-09-03T05:46:53.960Z,38.90
2022-09-03T05:49:20.634Z,38.50
2022-09-03T05:51:47.297Z,37.90
2022-09-03T05:54:14.046Z,37.50
2022-09-03T05:56:40.898Z,38.10
2022-09-03T05:59:09.588Z,37.70
2022-09-03T06:01:39.451Z,37.90
2022-09-03T06:04:07.620Z,38.20
2022-09-03T06:06:36.134Z,38.10
2022-09-03T06:09:05.349Z,38.10
2022-09-03T06:11:33.867Z,38.70
2022-09-03T06:14:02.626Z,38.70
2022-09-03T06:16:31.639Z,38.80
2022-09-03T06:19:00.834Z,39.10
2022-09-03T06:21:27.922Z,39.00
2022-09-03T06:23:55.850Z,39.40
2022-09-03T06:26:23.391Z,39.40
2022-09-03T06:28:50.140Z,40.00
2022-09-03T06:31:18.672Z,40.20
2022-09-03T06:33:46.582Z,40.50
2022-09-03T06:36:21.876Z,40.30
2022-09-03T06:38:52.184Z,40.90
2022-09-03T06:41:20.470Z,40.70
2022-09-03T06:43:48.195Z,40.30
2022-09-03T06:46:17.454Z,40.50
2022-09-03T06:48:45.572Z,40.60
2022-09-03T06:51:15.806Z,40.40
2022-09-03T06:53:44.154Z,41.00
2022-09-03T06:56:12.646Z,41.00
2022-09-03T06:58:40.934Z,40.70
2022-09-03T07:01:10.278Z,40.90
2022-09-03T07:03:38.481Z,40.90
2022-09-03T07:06:07.696Z,40.70
2022-09-03T07:08:35.951Z,40.70
2022-09-03T07:11:04.087Z,40.60
2022-09-03T07:13:30.827Z,40.90
2022-09-03T07:16:01.141Z,40.60
2022-09-03T07:18:27.932Z,40.70
2022-09-03T07:20:58.971Z,40.90
2022-09-03T07:23:25.649Z,40.60
2022-09-03T07:25:58.529Z,40.60
2022-09-03T07:28:26.211Z,40.40
2022-09-03T07:30:54.059Z,40.30
2022-09-03T07:33:21.060Z,40.50
2022-09-03T07:35:48.099Z,40.30
2022-09-03T07:38:17.781Z,40.20
2022-09-03T07:40:44.549Z,40.10
2022-09-03T07:43:12.617Z,39.90
2022-09-03T07:45:39.607Z,39.90
2022-09-03T07:48:06.326Z,39.60
2022-09-03T07:50:33.006Z,39.60
2022-09-03T07:52:59.919Z,39.60
2022-09-03T07:55:26.630Z,39.50
2022-09-03T07:57:56.524Z,39.50
2022-09-03T08:00:24.597Z,39.40
2022-09-03T08:02:52.262Z,39.30
2022-09-03T08:05:22.946Z,39.00
2022-09-03T08:07:49.611Z,39.00
2022-09-03T08:10:16.436Z,39.10
2022-09-03T08:12:43.113Z,39.10
2022-09-03T08:15:10.138Z,38.70
2022-09-03T08:17:38.177Z,38.80
2022-09-03T08:20:05.553Z,38.90
2022-09-03T08:22:32.260Z,38.60
2022-09-03T08:24:58.942Z,38.50
2022-09-03T08:27:25.608Z,38.40
2022-09-03T08:29:52.293Z,38.10
2022-09-03T08:32:21.133Z,38.00
2022-09-03T08:34:49.203Z,38.00
2022-09-03T08:37:15.872Z,38.00
2022-09-03T08:39:42.578Z,38.00
2022-09-03T08:42:21.293Z,37.90
2022-09-03T08:44:52.340Z,38.00
2022-09-03T08:47:24.570Z,36.70
2022-09-03T08:49:57.347Z,36.90
2022-09-03T08:52:29.243Z,36.70
2022-09-03T08:55:06.144Z,37.10
2022-09-03T08:57:40.611Z,36.10
2022-09-03T09:00:08.332Z,36.60
2022-09-03T09:02:45.839Z,36.70
2022-09-03T09:05:19.472Z,35.30
2022-09-03T09:07:51.599Z,36.00
2022-09-03T09:10:23.910Z,36.10
2022-09-03T09:12:58.831Z,35.60
2022-09-03T09:15:34.418Z,34.80
2022-09-03T09:18:13.427Z,35.60
2022-09-03T09:20:48.743Z,35.50
2022-09-03T09:23:20.017Z,35.60
2022-09-03T09:25:49.622Z,35.00
2022-09-03T09:28:19.322Z,35.00
2022-09-03T09:30:48.972Z,34.90
2022-09-03T09:33:16.571Z,34.60
2022-09-03T09:35:45.379Z,34.50
2022-09-03T09:38:12.989Z,33.50
2022-09-03T09:40:45.196Z,32.60
2022-09-03T09:43:14.845Z,32.60
2022-09-03T09:45:44.313Z,33.20
2022-09-03T09:48:21.055Z,32.80
2022-09-03T09:50:49.300Z,32.30
2022-09-03T09:53:18.910Z,33.00
2022-09-03T09:55:49.823Z,32.90
2022-09-03T09:58:20.229Z,31.70
2022-09-03T10:01:02.795Z,32.10
2022-09-03T10:03:32.848Z,32.10
2022-09-03T10:07:23.602Z,31.10
2022-09-03T10:09:31.467Z,32.50
2022-09-03T10:12:08.187Z,31.30
2022-09-03T10:14:38.310Z,31.80
2022-09-03T10:17:11.095Z,30.40
2022-09-03T10:19:46.173Z,30.30
2022-09-03T10:22:18.720Z,30.20
2022-09-03T10:24:52.931Z,30.70
2022-09-03T10:27:20.282Z,30.40
2022-09-03T10:29:47.066Z,29.40
2022-09-03T10:32:39.344Z,30.70
2022-09-03T10:35:17.506Z,30.00
2022-09-03T10:37:50.914Z,29.00
2022-09-03T10:40:29.162Z,28.60
2022-09-03T10:43:08.324Z,28.70
2022-09-03T10:45:41.285Z,28.80
2022-09-03T10:48:19.768Z,29.60
2022-09-03T10:50:51.472Z,28.90
2022-09-03T10:53:34.506Z,28.10
2022-09-03T10:56:06.048Z,28.40
2022-09-03T10:58:48.099Z,28.70
2022-09-03T11:01:23.890Z,27.50
2022-09-03T11:04:06.715Z,28.10
2022-09-03T11:06:43.314Z,28.50
2022-09-03T11:09:18.575Z,28.70
2022-09-03T11:11:52.542Z,28.10
2022-09-03T11:14:29.938Z,28.70
2022-09-03T11:17:07.515Z,27.90
2022-09-03T11:19:41.238Z,29.30
2022-09-03T11:22:10.291Z,28.60
2022-09-03T11:24:40.027Z,27.60
2022-09-03T11:27:21.168Z,27.90
2022-09-03T11:29:53.082Z,28.30
2022-09-03T11:32:24.504Z,28.20
2022-09-03T11:34:53.356Z,28.60
2022-09-03T11:37:22.693Z,28.80
2022-09-03T11:40:04.597Z,27.90
2022-09-03T11:42:36.508Z,26.50
2022-09-03T11:45:33.743Z,27.90
2022-09-03T11:48:00.640Z,27.70
2022-09-03T11:50:29.421Z,27.40
2022-09-03T11:53:08.788Z,27.50
2022-09-03T11:55:52.097Z,28.00
2022-09-03T11:58:25.602Z,28.30
2022-09-03T12:00:53.132Z,27.70
2022-09-03T12:03:25.437Z,28.00
2022-09-03T12:06:09.494Z,27.60
2022-09-03T12:08:52.720Z,27.20
2022-09-03T12:11:39.684Z,27.40
2022-09-03T12:14:16.505Z,27.80
2022-09-03T12:17:19.460Z,27.80
2022-09-03T12:19:51.857Z,28.30
2022-09-03T12:22:20.191Z,27.50
2022-09-03T12:24:47.651Z,27.40
2022-09-03T12:27:18.493Z,27.90
2022-09-03T12:29:54.497Z,27.60
2022-09-03T12:32:21.608Z,28.00
2022-09-03T12:34:51.138Z,28.00
2022-09-03T12:38:04.024Z,28.30
2022-09-03T12:40:18.954Z,28.20
2022-09-03T12:42:45.763Z,28.10
2022-09-03T12:45:14.695Z,28.10
2022-09-03T12:47:43.077Z,27.90
2022-09-03T12:50:12.419Z,27.10
2022-09-03T12:52:44.378Z,27.40
2022-09-03T12:55:27.878Z,27.30
2022-09-03T12:58:02.626Z,26.80
2022-09-03T13:00:32.993Z,25.70
2022-09-03T13:03:03.044Z,26.10
2022-09-03T13:05:33.870Z,25.30
2022-09-03T13:08:03.127Z,26.40
2022-09-03T13:10:32.079Z,26.50
2022-09-03T13:13:01.022Z,26.70
2022-09-03T13:15:28.802Z,26.60
2022-09-03T13:18:10.436Z,26.60
2022-09-03T13:20:49.192Z,26.30
2022-09-03T13:23:34.553Z,26.50
2022-09-03T13:26:09.626Z,26.60
2022-09-03T13:28:50.881Z,26.80
2022-09-03T13:31:28.809Z,26.50
2022-09-03T13:34:02.962Z,26.50
2022-09-03T13:36:37.445Z,26.30
2022-09-03T13:39:11.791Z,26.80
2022-09-03T13:41:43.923Z,26.70
2022-09-03T13:44:16.206Z,26.40
2022-09-03T13:46:48.629Z,25.60
2022-09-03T13:49:30.439Z,26.10
2022-09-03T13:52:00.205Z,26.60
2022-09-03T13:57:27.707Z,27.00
2022-09-03T13:59:58.861Z,26.90
2022-09-03T14:02:33.584Z,26.40
2022-09-03T14:05:06.437Z,26.20
2022-09-03T14:07:49.395Z,26.30
2022-09-03T14:10:24.381Z,27.30
2022-09-03T14:13:02.986Z,26.70
2022-09-03T14:15:35.156Z,26.20
2022-09-03T14:18:13.693Z,26.20
2022-09-03T14:20:47.449Z,26.10
2022-09-03T14:23:28.879Z,26.50
2022-09-03T14:25:56.635Z,26.30
2022-09-03T14:28:30.731Z,25.60
2022-09-03T14:31:07.810Z,25.60
2022-09-03T14:33:44.094Z,25.40
2022-09-03T14:36:22.967Z,26.00
2022-09-03T14:39:03.149Z,25.60
2022-09-03T14:41:55.542Z,26.00
2022-09-03T14:44:45.768Z,26.30
2022-09-03T14:47:29.967Z,25.30
2022-09-03T14:50:12.154Z,25.70
2022-09-03T14:53:07.566Z,25.50
2022-09-03T14:55:53.793Z,25.80
2022-09-03T14:58:32.899Z,25.40
2022-09-03T15:01:03.512Z,25.50
2022-09-03T15:03:58.022Z,25.60
2022-09-03T15:06:37.151Z,25.60
2022-09-03T15:09:17.937Z,25.30
2022-09-03T15:11:49.459Z,25.40
2022-09-03T15:14:24.487Z,25.50
2022-09-03T15:16:58.825Z,25.90
2022-09-03T15:19:51.343Z,25.70
2022-09-03T15:22:31.871Z,25.80
2022-09-03T15:25:10.409Z,25.50
2022-09-03T15:27:49.342Z,25.80
2022-09-03T15:30:18.143Z,25.70
2022-09-03T15:33:01.588Z,25.50
2022-09-03T15:35:43.014Z,25.50
2022-09-03T15:38:13.059Z,25.40
2022-09-03T15:40:50.149Z,25.40
2022-09-03T15:43:21.083Z,25.50
2022-09-03T15:45:52.763Z,25.80
2022-09-03T15:48:26.677Z,25.70
2022-09-03T15:50:58.330Z,26.00
2022-09-03T15:53:33.188Z,26.00
2022-09-03T15:56:20.680Z,26.00
2022-09-03T15:58:55.001Z,25.90
2022-09-03T16:01:28.811Z,25.80
2022-09-03T16:04:02.679Z,26.10
2022-09-03T16:06:37.840Z,26.30
2022-09-03T16:09:17.906Z,26.20
2022-09-03T16:12:00.479Z,26.30
2022-09-03T16:14:34.688Z,26.50
2022-09-03T16:17:09.966Z,26.60
2022-09-03T16:19:43.752Z,26.60
2022-09-03T16:22:18.971Z,26.50
2022-09-03T16:24:53.742Z,26.70
2022-09-03T16:27:25.637Z,26.70
2022-09-03T16:29:59.206Z,26.80
2022-09-03T16:32:39.000Z,26.80
2022-09-03T16:35:16.894Z,27.10
2022-09-03T16:37:55.099Z,27.10
2022-09-03T16:40:33.400Z,27.20
2022-09-03T16:43:29.907Z,27.20
2022-09-03T16:46:06.568Z,27.20
2022-09-03T16:48:40.615Z,27.10
2022-09-03T16:51:12.905Z,27.10
2022-09-03T16:54:01.307Z,27.20
2022-09-03T16:56:44.107Z,27.30
2022-09-03T16:59:26.535Z,27.60
2022-09-03T17:02:23.734Z,27.40
2022-09-03T17:05:13.726Z,27.40
2022-09-03T17:08:01.132Z,27.40
2022-09-03T17:10:37.341Z,27.30
2022-09-03T17:13:23.081Z,27.30
2022-09-03T17:15:58.368Z,27.40
2022-09-03T17:18:38.867Z,27.40
2022-09-03T17:21:26.811Z,27.50
2022-09-03T17:24:24.257Z,27.30
2022-09-03T17:27:04.265Z,27.50
2022-09-03T17:29:43.576Z,27.60
2022-09-03T17:32:26.394Z,27.80
2022-09-03T17:35:05.903Z,27.80
2022-09-03T17:37:46.460Z,28.20
2022-09-03T17:40:22.878Z,27.90
2022-09-03T17:42:56.903Z,28.00
2022-09-03T17:45:36.533Z,28.00
2022-09-03T17:48:16.638Z,28.10
2022-09-03T17:50:48.630Z,28.10
2022-09-03T17:53:19.869Z,28.20
2022-09-03T17:55:55.446Z,28.30
2022-09-03T17:58:27.707Z,28.40
2022-09-03T18:01:01.745Z,28.50
2022-09-03T18:03:33.951Z,28.60
2022-09-03T18:06:06.079Z,28.60
2022-09-03T18:08:41.691Z,28.70
2022-09-03T18:11:12.119Z,28.70
2022-09-03T18:13:50.194Z,28.70
2022-09-03T18:16:24.064Z,28.70
2022-09-03T18:18:57.950Z,28.80
2022-09-03T18:21:31.713Z,28.90
2022-09-03T18:24:05.676Z,28.90
2022-09-03T18:26:39.667Z,29.00
2022-09-03T18:29:12.416Z,29.00
2022-09-03T18:31:39.208Z,29.10
2022-09-03T18:34:08.737Z,29.20
2022-09-03T18:36:36.113Z,29.20
2022-09-03T18:39:11.957Z,29.30
2022-09-03T18:41:53.999Z,29.40
2022-09-03T18:44:29.584Z,29.50
2022-09-03T18:50:03.986Z,29.60
2022-09-03T18:52:42.071Z,29.70
2022-09-03T18:55:18.387Z,29.80
2022-09-03T18:57:57.978Z,29.80
2022-09-03T19:00:29.000Z,29.90
2022-09-03T19:03:18.745Z,30.00
2022-09-03T19:06:01.686Z,29.90
2022-09-03T19:08:36.994Z,30.00
2022-09-03T19:11:09.342Z,30.10
2022-09-03T19:13:37.686Z,30.30
2022-09-03T19:16:09.812Z,30.30
2022-09-03T19:19:00.859Z,30.30
2022-09-03T19:21:34.981Z,30.30
2022-09-03T19:24:02.274Z,30.50
2022-09-03T19:26:40.709Z,30.60
2022-09-03T19:29:14.692Z,30.60
2022-09-03T19:31:50.921Z,30.80
2022-09-03T19:34:30.867Z,30.80
2022-09-03T19:37:04.895Z,30.80
2022-09-03T19:39:50.761Z,30.90
2022-09-03T19:42:26.782Z,30.90
2022-09-03T19:45:00.738Z,31.10
2022-09-03T19:47:42.405Z,31.10
2022-09-03T19:50:16.500Z,31.10
2022-09-03T19:52:49.204Z,31.20
2022-09-03T19:55:21.962Z,31.20
2022-09-03T19:57:56.122Z,31.20
2022-09-03T20:00:32.553Z,31.20
2022-09-03T20:03:02.735Z,31.40
2022-09-03T20:05:29.622Z,31.30
2022-09-03T20:07:59.790Z,31.50
2022-09-03T20:10:28.373Z,31.50
2022-09-03T20:13:03.320Z,31.50
2022-09-03T20:15:39.943Z,31.40
2022-09-03T20:18:11.062Z,31.60
2022-09-03T20:20:46.160Z,31.80
2022-09-03T20:23:20.590Z,31.70
2022-09-03T20:26:10.550Z,31.70
2022-09-03T20:28:54.256Z,31.60
2022-09-03T20:31:25.063Z,31.80
2022-09-03T20:34:02.823Z,31.90
2022-09-03T20:36:41.773Z,31.80
2022-09-03T20:39:33.790Z,32.00
2022-09-03T20:42:16.866Z,32.00
2022-09-03T20:44:53.253Z,32.20
2022-09-03T20:47:40.332Z,32.20
2022-09-03T20:50:22.503Z,32.20
2022-09-03T20:52:56.950Z,32.20
2022-09-03T20:55:32.399Z,32.30
2022-09-03T20:58:09.383Z,32.30
2022-09-03T21:00:43.738Z,32.20
2022-09-03T21:03:17.963Z,32.30
2022-09-03T21:05:54.676Z,32.50
2022-09-03T21:08:34.289Z,32.60
2022-09-03T21:11:09.309Z,32.40
2022-09-03T21:13:41.885Z,32.70
2022-09-03T21:16:24.061Z,32.70
2022-09-03T21:19:01.424Z,32.60
2022-09-03T21:21:37.468Z,32.80
2022-09-03T21:24:08.495Z,32.80
2022-09-03T21:26:39.024Z,32.60
2022-09-03T21:29:12.975Z,32.70
2022-09-03T21:31:46.131Z,32.70
2022-09-03T21:34:19.066Z,33.20
2022-09-03T21:36:47.102Z,33.10
2022-09-03T21:39:19.413Z,33.00
2022-09-03T21:41:55.619Z,33.00
2022-09-03T21:44:31.285Z,32.90
2022-09-03T21:47:02.224Z,32.90
2022-09-03T21:49:32.609Z,33.20
2022-09-03T21:52:03.997Z,33.10
2022-09-03T21:54:32.494Z,33.20
2022-09-03T21:57:22.322Z,33.10
2022-09-03T22:00:09.826Z,33.40
2022-09-03T22:02:36.775Z,33.20
2022-09-03T22:05:05.161Z,33.40
2022-09-03T22:07:43.724Z,33.30
2022-09-03T22:10:20.370Z,33.70
2022-09-03T22:12:56.039Z,33.50
2022-09-03T22:15:23.699Z,33.70
2022-09-03T22:17:53.290Z,33.70
2022-09-03T22:20:20.234Z,33.90
2022-09-03T22:22:52.781Z,33.80
2022-09-03T22:25:23.316Z,34.00
2022-09-03T22:28:00.041Z,34.00
2022-09-03T22:30:32.111Z,33.90
2022-09-03T22:33:06.534Z,34.10
2022-09-03T22:36:01.158Z,34.10
2022-09-03T22:39:05.510Z,34.00
2022-09-03T22:41:47.508Z,34.10
2022-09-03T22:44:31.342Z,34.60
2022-09-03T22:47:11.131Z,34.60
2022-09-03T22:49:47.041Z,34.40
2022-09-03T22:52:26.677Z,34.50
2022-09-03T22:55:11.530Z,34.60
2022-09-03T22:57:46.690Z,34.50
2022-09-03T23:00:15.302Z,34.70
2022-09-03T23:02:42.363Z,34.90
2022-09-03T23:05:17.172Z,34.80
2022-09-03T23:07:50.960Z,34.50
2022-09-03T23:10:25.681Z,34.80
2022-09-03T23:13:05.135Z,34.50
2022-09-03T23:15:37.158Z,34.80
2022-09-03T23:18:07.627Z,34.80
2022-09-03T23:20:38.285Z,34.60
2022-09-03T23:23:15.151Z,34.70
2022-09-03T23:25:44.216Z,34.70
2022-09-03T23:28:21.251Z,34.90
2022-09-03T23:30:49.587Z,35.00
2022-09-03T23:33:16.642Z,34.80
2022-09-03T23:35:48.679Z,35.00
2022-09-03T23:38:23.000Z,35.20
2022-09-03T23:40:50.889Z,35.50
2022-09-03T23:44:00.918Z,34.80
2022-09-03T23:46:36.630Z,34.80
2022-09-03T23:49:15.360Z,35.20
2022-09-03T23:51:59.390Z,35.20
2022-09-03T23:54:37.216Z,35.80
2022-09-03T23:57:08.043Z,35.50
2022-09-03T23:59:47.203Z,35.00
